createdAt,value
2023-01-28T00:01:57.656Z,13.23
2023-01-28T00:04:24.912Z,13.05
2023-01-28T00:06:55.392Z,16.20
2023-01-28T00:09:22.268Z,10.82
2023-01-28T00:11:49.188Z,10.10
2023-01-28T00:14:16.089Z,11.07
2023-01-28T00:16:42.986Z,10.40
2023-01-28T00:19:09.997Z,10.50
2023-01-28T00:21:36.853Z,11.68
2023-01-28T00:24:03.945Z,11.10
2023-01-28T00:26:30.894Z,11.00
2023-01-28T00:28:57.926Z,9.98
2023-01-28T00:31:27.402Z,9.77
2023-01-28T00:33:55.662Z,11.20
2023-01-28T00:36:24.865Z,10.80
2023-01-28T00:38:54.112Z,9.73
2023-01-28T00:41:23.745Z,12.55
2023-01-28T00:43:51.690Z,11.50
2023-01-28T00:46:19.837Z,11.68
2023-01-28T00:48:47.345Z,11.73
2023-01-28T00:51:17.286Z,15.30
2023-01-28T00:53:44.715Z,11.77
2023-01-28T00:56:14.815Z,12.15
2023-01-28T00:58:42.823Z,10.65
2023-01-28T01:01:20.489Z,10.25
2023-01-28T01:03:48.247Z,10.93
2023-01-28T01:06:19.319Z,10.80
2023-01-28T01:08:50.776Z,11.80
2023-01-28T01:11:18.298Z,12.68
2023-01-28T01:13:49.583Z,13.70
2023-01-28T01:16:16.749Z,11.85
2023-01-28T01:18:44.493Z,16.23
2023-01-28T01:21:14.855Z,10.05
2023-01-28T01:23:42.482Z,14.18
2023-01-28T01:26:09.906Z,12.07
2023-01-28T01:28:37.158Z,10.70
2023-01-28T01:31:07.276Z,11.65
2023-01-28T01:33:34.746Z,11.63
2023-01-28T01:36:01.854Z,13.05
2023-01-28T01:38:29.958Z,11.13
2023-01-28T01:41:01.511Z,11.30
2023-01-28T01:43:50.073Z,12.15
2023-01-28T01:46:29.037Z,11.70
2023-01-28T01:48:58.200Z,17.63
2023-01-28T01:51:32.906Z,20.83
2023-01-28T01:54:01.553Z,12.48
2023-01-28T01:56:35.722Z,12.27
2023-01-28T01:59:03.874Z,12.02
2023-01-28T02:01:32.643Z,11.98
2023-01-28T02:04:08.285Z,13.20
2023-01-28T02:06:36.632Z,14.05
2023-01-28T02:09:06.816Z,13.40
2023-01-28T02:11:34.909Z,15.93
2023-01-28T02:14:05.036Z,12.30
2023-01-28T02:16:32.756Z,14.27
2023-01-28T02:18:59.681Z,14.93
2023-01-28T02:21:55.220Z,11.90
2023-01-28T02:24:27.286Z,13.05
2023-01-28T02:27:14.701Z,13.65
2023-01-28T02:30:11.422Z,18.08
2023-01-28T02:32:51.422Z,11.63
2023-01-28T02:35:37.854Z,11.80
2023-01-28T02:38:12.721Z,12.70
2023-01-28T02:41:01.907Z,13.05
2023-01-28T02:43:37.307Z,14.45
2023-01-28T02:46:29.985Z,13.85
2023-01-28T02:48:57.117Z,12.35
2023-01-28T02:51:44.022Z,22.98
2023-01-28T02:54:14.683Z,13.38
2023-01-28T02:56:59.285Z,11.88
2023-01-28T02:59:33.877Z,12.95
2023-01-28T03:02:13.047Z,12.02
2023-01-28T03:04:46.749Z,11.68
2023-01-28T03:07:16.206Z,13.65
2023-01-28T03:09:45.812Z,14.00
2023-01-28T03:12:36.341Z,11.15
2023-01-28T03:15:33.317Z,12.38
2023-01-28T03:18:27.731Z,11.25
2023-01-28T03:21:27.624Z,13.52
2023-01-28T03:24:17.845Z,12.38
2023-01-28T03:27:27.395Z,14.70
2023-01-28T03:30:15.986Z,13.95
2023-01-28T03:33:02.418Z,13.38
2023-01-28T03:35:50.598Z,13.38
2023-01-28T03:38:21.171Z,12.23
2023-01-28T03:40:53.209Z,13.05
2023-01-28T03:43:20.082Z,13.23
2023-01-28T03:45:51.326Z,12.40
2023-01-28T03:48:19.495Z,13.40
2023-01-28T03:50:48.170Z,16.13
2023-01-28T03:53:17.048Z,13.18
2023-01-28T03:55:44.936Z,10.90
2023-01-28T03:58:12.476Z,13.63
2023-01-28T04:00:43.470Z,12.98
2023-01-28T04:03:16.104Z,13.65
2023-01-28T04:05:47.911Z,14.88
2023-01-28T04:08:14.690Z,14.82
2023-01-28T04:10:41.797Z,11.60
2023-01-28T04:13:08.549Z,14.45
2023-01-28T04:15:36.612Z,11.85
2023-01-28T04:18:03.455Z,12.93
2023-01-28T04:20:30.570Z,14.05
2023-01-28T04:22:57.560Z,12.15
2023-01-28T04:25:24.375Z,12.05
2023-01-28T04:27:51.204Z,13.90
2023-01-28T04:30:18.425Z,13.13
2023-01-28T04:32:47.036Z,12.88
2023-01-28T04:35:14.577Z,11.75
2023-01-28T04:37:42.460Z,12.43
2023-01-28T04:40:10.704Z,11.73
2023-01-28T04:42:37.637Z,10.77
2023-01-28T04:45:05.082Z,9.02
2023-01-28T04:47:31.901Z,9.95
2023-01-28T04:49:58.674Z,13.80
2023-01-28T04:52:25.457Z,12.10
2023-01-28T04:54:52.222Z,11.10
2023-01-28T04:57:19.197Z,11.95
2023-01-28T04:59:45.971Z,10.85
2023-01-28T05:02:12.808Z,10.00
2023-01-28T05:04:39.684Z,12.40
2023-01-28T05:07:06.426Z,11.93
2023-01-28T05:09:33.345Z,10.18
2023-01-28T05:12:00.186Z,10.18
2023-01-28T05:14:27.200Z,11.90
2023-01-28T05:16:54.166Z,10.90
2023-01-28T05:19:20.972Z,13.50
2023-01-28T05:21:48.001Z,13.38
2023-01-28T05:24:15.802Z,10.90
2023-01-28T05:26:42.816Z,10.32
2023-01-28T05:29:09.918Z,10.95
2023-01-28T05:31:36.716Z,10.68
2023-01-28T05:34:03.766Z,11.35
2023-01-28T05:36:30.506Z,12.25
2023-01-28T05:38:57.363Z,13.02
2023-01-28T05:41:24.196Z,13.07
2023-01-28T05:43:50.969Z,11.82
2023-01-28T05:46:17.766Z,11.85
2023-01-28T05:48:45.672Z,12.80
2023-01-28T05:51:12.513Z,17.88
2023-01-28T05:53:39.413Z,12.82
2023-01-28T05:56:06.561Z,14.00
2023-01-28T05:58:33.525Z,12.80
2023-01-28T06:01:00.336Z,14.60
2023-01-28T06:03:27.111Z,13.40
2023-01-28T06:05:54.268Z,13.23
2023-01-28T06:08:21.122Z,13.20
2023-01-28T06:10:48.036Z,13.95
2023-01-28T06:13:15.073Z,15.57
2023-01-28T06:15:41.920Z,14.32
2023-01-28T06:18:08.798Z,13.65
2023-01-28T06:20:35.720Z,13.60
2023-01-28T06:23:02.646Z,13.40
2023-01-28T06:25:29.430Z,14.98
2023-01-28T06:27:56.189Z,13.68
2023-01-28T06:30:22.992Z,14.13
2023-01-28T06:32:57.452Z,15.25
2023-01-28T06:35:24.490Z,13.10
2023-01-28T06:37:52.608Z,15.43
2023-01-28T06:40:20.419Z,15.02
2023-01-28T06:42:47.285Z,12.82
2023-01-28T06:45:16.896Z,14.27
2023-01-28T06:47:43.900Z,13.88
2023-01-28T06:50:11.349Z,15.70
2023-01-28T06:52:38.287Z,14.88
2023-01-28T06:55:05.617Z,15.05
2023-01-28T06:57:32.385Z,18.13
2023-01-28T06:59:59.226Z,15.48
2023-01-28T07:02:27.694Z,14.95
2023-01-28T07:04:54.658Z,18.63
2023-01-28T07:07:21.468Z,17.02
2023-01-28T07:09:48.416Z,22.10
2023-01-28T07:12:15.708Z,15.95
2023-01-28T07:14:42.649Z,15.65
2023-01-28T07:17:09.528Z,21.92
2023-01-28T07:19:36.543Z,16.27
2023-01-28T07:22:03.582Z,16.27
2023-01-28T07:24:30.877Z,16.27
2023-01-28T07:26:57.709Z,14.65
2023-01-28T07:29:24.492Z,15.70
2023-01-28T07:31:51.389Z,15.43
2023-01-28T07:34:18.251Z,15.68
2023-01-28T07:36:45.067Z,16.55
2023-01-28T07:39:11.825Z,13.68
2023-01-28T07:41:38.657Z,16.63
2023-01-28T07:44:05.769Z,17.15
2023-01-28T07:46:32.638Z,16.27
2023-01-28T07:48:59.501Z,15.60
2023-01-28T07:51:26.276Z,13.88
2023-01-28T07:53:53.143Z,16.23
2023-01-28T07:56:20.000Z,14.98
2023-01-28T07:58:50.149Z,14.82
2023-01-28T08:01:18.435Z,12.05
2023-01-28T08:03:45.350Z,9.18
2023-01-28T08:06:12.237Z,8.32
2023-01-28T08:08:39.132Z,10.43
2023-01-28T08:11:10.859Z,11.10
2023-01-28T08:13:38.483Z,10.18
2023-01-28T08:16:05.782Z,10.50
2023-01-28T08:18:32.702Z,10.07
2023-01-28T08:21:00.278Z,13.50
2023-01-28T08:23:27.749Z,9.90
2023-01-28T08:25:55.223Z,13.30
2023-01-28T08:28:22.548Z,11.18
2023-01-28T08:30:49.602Z,10.50
2023-01-28T08:33:18.265Z,13.30
2023-01-28T08:35:45.685Z,10.68
2023-01-28T08:38:15.367Z,14.55
2023-01-28T08:40:42.378Z,11.48
2023-01-28T08:43:12.557Z,10.60
2023-01-28T08:45:42.428Z,9.52
2023-01-28T08:48:18.509Z,13.13
2023-01-28T08:51:02.657Z,11.82
2023-01-28T08:53:30.820Z,13.77
2023-01-28T08:55:57.757Z,13.98
2023-01-28T08:58:24.802Z,8.30
2023-01-28T09:00:51.634Z,11.48
2023-01-28T09:03:19.363Z,10.23
2023-01-28T09:05:46.187Z,11.95
2023-01-28T09:08:15.142Z,13.63
2023-01-28T09:10:42.584Z,12.50
2023-01-28T09:13:15.313Z,12.63
2023-01-28T09:15:43.008Z,20.70
2023-01-28T09:18:09.940Z,14.98
2023-01-28T09:20:37.920Z,11.80
2023-01-28T09:23:05.254Z,12.85
2023-01-28T09:25:32.175Z,13.57
2023-01-28T09:27:59.690Z,13.40
2023-01-28T09:30:27.061Z,17.60
2023-01-28T09:32:55.485Z,12.48
2023-01-28T09:35:22.425Z,12.38
2023-01-28T09:37:49.324Z,42.05
2023-01-28T09:40:21.004Z,27.38
2023-01-28T09:43:07.412Z,13.98
2023-01-28T09:45:45.990Z,12.52
2023-01-28T09:48:30.755Z,12.52
2023-01-28T09:50:57.808Z,13.43
2023-01-28T09:53:33.321Z,13.63
2023-01-28T09:56:12.906Z,12.40
2023-01-28T09:58:41.783Z,11.07
2023-01-28T10:01:17.869Z,21.63
2023-01-28T10:03:57.754Z,9.70
2023-01-28T10:06:43.386Z,10.30
2023-01-28T10:09:34.612Z,6.25
2023-01-28T10:12:01.520Z,8.80
2023-01-28T10:14:50.552Z,7.97
2023-01-28T10:17:23.944Z,6.10
2023-01-28T10:19:56.998Z,6.90
2023-01-28T10:22:32.300Z,4.97
2023-01-28T10:25:06.901Z,4.72
2023-01-28T10:27:36.165Z,5.43
2023-01-28T10:30:31.265Z,6.78
2023-01-28T10:33:06.550Z,5.75
2023-01-28T10:35:41.705Z,6.40
2023-01-28T10:38:14.647Z,6.43
2023-01-28T10:40:44.810Z,11.43
2023-01-28T10:43:11.694Z,7.88
2023-01-28T10:45:53.046Z,4.93
2023-01-28T10:48:29.324Z,5.45
2023-01-28T10:51:06.143Z,4.80
2023-01-28T10:53:42.463Z,5.53
2023-01-28T10:56:16.265Z,6.80
2023-01-28T10:59:00.663Z,4.53
2023-01-28T11:01:53.052Z,6.40
2023-01-28T11:04:27.440Z,4.50
2023-01-28T11:06:57.006Z,6.20
2023-01-28T11:09:37.937Z,6.95
2023-01-28T11:12:31.245Z,9.02
2023-01-28T11:15:03.895Z,5.78
2023-01-28T11:17:37.662Z,5.25
2023-01-28T11:20:26.906Z,7.57
2023-01-28T11:22:55.351Z,10.25
2023-01-28T11:25:36.062Z,7.05
2023-01-28T11:28:08.216Z,4.43
2023-01-28T11:30:40.257Z,10.57
2023-01-28T11:33:20.230Z,4.45
2023-01-28T11:35:58.668Z,4.55
2023-01-28T11:38:26.723Z,7.85
2023-01-28T11:40:55.800Z,4.88
2023-01-28T11:43:29.503Z,6.68
2023-01-28T11:46:13.102Z,5.43
2023-01-28T11:48:42.758Z,3.15
2023-01-28T11:51:43.281Z,5.03
2023-01-28T11:54:46.480Z,5.70
2023-01-28T11:57:28.424Z,4.07
2023-01-28T12:00:18.076Z,5.00
2023-01-28T12:03:03.626Z,4.50
2023-01-28T12:05:37.944Z,5.32
2023-01-28T12:08:41.704Z,3.10
2023-01-28T12:11:17.108Z,4.75
2023-01-28T12:13:57.331Z,5.68
2023-01-28T12:16:45.250Z,8.07
2023-01-28T12:19:32.363Z,4.47
2023-01-28T12:22:21.304Z,3.53
2023-01-28T12:25:15.025Z,3.33
2023-01-28T12:27:58.900Z,4.28
2023-01-28T12:30:48.278Z,5.00
2023-01-28T12:33:30.093Z,5.60
2023-01-28T12:36:22.625Z,5.43
2023-01-28T12:38:58.172Z,8.05
2023-01-28T12:41:32.574Z,8.80
2023-01-28T12:44:09.591Z,4.78
2023-01-28T12:46:39.169Z,8.32
2023-01-28T12:49:21.556Z,5.28
2023-01-28T12:51:57.070Z,5.80
2023-01-28T12:55:11.355Z,3.50
2023-01-28T12:57:38.798Z,7.95
2023-01-28T13:00:30.193Z,7.63
2023-01-28T13:03:12.055Z,5.22
2023-01-28T13:05:45.812Z,4.25
2023-01-28T13:08:25.280Z,7.00
2023-01-28T13:10:53.864Z,4.97
2023-01-28T13:13:36.393Z,6.90
2023-01-28T13:16:05.281Z,7.47
2023-01-28T13:18:52.546Z,8.65
2023-01-28T13:21:24.999Z,5.90
2023-01-28T13:24:09.407Z,5.05
2023-01-28T13:26:46.783Z,5.20
2023-01-28T13:29:31.087Z,4.85
2023-01-28T13:32:01.234Z,7.78
2023-01-28T13:34:43.664Z,4.85
2023-01-28T13:37:33.400Z,6.32
2023-01-28T13:40:06.309Z,6.95
2023-01-28T13:42:33.313Z,4.18
2023-01-28T13:45:22.194Z,5.00
2023-01-28T13:47:53.835Z,5.88
2023-01-28T13:50:23.777Z,8.13
2023-01-28T13:53:36.781Z,7.03
2023-01-28T13:56:09.044Z,5.75
2023-01-28T13:58:35.770Z,5.70
2023-01-28T14:01:20.746Z,4.50
2023-01-28T14:04:00.844Z,5.95
2023-01-28T14:06:39.657Z,6.82
2023-01-28T14:09:31.114Z,12.90
2023-01-28T14:12:16.591Z,11.45
2023-01-28T14:15:21.578Z,6.30
2023-01-28T14:17:56.526Z,4.95
2023-01-28T14:20:37.925Z,6.00
2023-01-28T14:23:07.225Z,4.72
2023-01-28T14:25:54.964Z,6.40
2023-01-28T14:28:41.868Z,5.00
2023-01-28T14:31:18.469Z,7.25
2023-01-28T14:33:46.873Z,8.35
2023-01-28T14:36:14.001Z,8.90
2023-01-28T14:38:43.937Z,7.00
2023-01-28T14:41:23.459Z,5.97
2023-01-28T14:43:50.731Z,7.75
2023-01-28T14:46:46.095Z,6.47
2023-01-28T14:49:36.413Z,5.82
2023-01-28T14:52:06.251Z,9.65
2023-01-28T14:55:00.350Z,17.95
2023-01-28T14:57:52.661Z,13.80
2023-01-28T15:00:26.060Z,6.60
2023-01-28T15:02:53.130Z,8.07
2023-01-28T15:05:23.591Z,5.00
2023-01-28T15:07:51.295Z,6.40
2023-01-28T15:10:24.448Z,9.00
2023-01-28T15:12:56.051Z,6.05
2023-01-28T15:15:36.594Z,7.18
2023-01-28T15:18:19.428Z,7.45
2023-01-28T15:20:49.085Z,10.90
2023-01-28T15:23:19.535Z,4.72
2023-01-28T15:25:46.509Z,11.32
2023-01-28T15:28:25.441Z,7.32
2023-01-28T15:30:52.267Z,8.50
2023-01-28T15:33:22.029Z,5.80
2023-01-28T15:35:54.206Z,15.70
2023-01-28T15:38:22.117Z,17.40
2023-01-28T15:40:54.537Z,40.22
2023-01-28T15:43:28.361Z,15.70
2023-01-28T15:45:57.359Z,13.95
2023-01-28T15:48:27.468Z,8.35
2023-01-28T15:51:07.543Z,36.88
2023-01-28T15:53:43.327Z,18.70
2023-01-28T15:56:12.330Z,11.95
2023-01-28T15:58:42.927Z,8.88
2023-01-28T16:01:09.784Z,42.22
2023-01-28T16:03:42.469Z,6.82
2023-01-28T16:06:22.021Z,6.53
2023-01-28T16:09:01.053Z,10.13
2023-01-28T16:11:34.253Z,15.60
2023-01-28T16:14:01.384Z,15.77
2023-01-28T16:16:32.275Z,13.05
2023-01-28T16:18:59.425Z,12.02
2023-01-28T16:21:32.435Z,6.75
2023-01-28T16:24:07.032Z,7.07
2023-01-28T16:26:35.936Z,8.70
2023-01-28T16:29:17.088Z,10.10
2023-01-28T16:31:44.014Z,16.90
2023-01-28T16:34:11.760Z,14.40
2023-01-28T16:36:38.853Z,12.98
2023-01-28T16:39:05.926Z,13.02
2023-01-28T16:41:44.589Z,10.23
2023-01-28T16:44:14.221Z,12.98
2023-01-28T16:46:41.436Z,14.52
2023-01-28T16:49:09.156Z,13.45
2023-01-28T16:51:38.594Z,13.40
2023-01-28T16:54:05.968Z,10.43
2023-01-28T16:56:45.031Z,11.48
2023-01-28T16:59:15.865Z,7.70
2023-01-28T17:01:43.887Z,11.00
2023-01-28T17:04:12.757Z,8.70
2023-01-28T17:06:42.977Z,15.98
2023-01-28T17:09:16.517Z,11.77
2023-01-28T17:11:43.407Z,8.20
2023-01-28T17:14:11.363Z,12.15
2023-01-28T17:16:38.954Z,12.13
2023-01-28T17:19:06.410Z,8.70
2023-01-28T17:21:33.352Z,14.75
2023-01-28T17:24:01.358Z,12.32
2023-01-28T17:26:29.143Z,9.98
2023-01-28T17:28:56.417Z,14.40
2023-01-28T17:31:24.136Z,16.35
2023-01-28T17:34:02.050Z,21.73
2023-01-28T17:36:31.114Z,28.42
2023-01-28T17:38:58.010Z,21.60
2023-01-28T17:41:24.908Z,16.77
2023-01-28T17:44:07.572Z,14.02
2023-01-28T17:46:34.545Z,10.82
2023-01-28T17:49:02.241Z,11.48
2023-01-28T17:51:29.247Z,13.32
2023-01-28T17:53:56.098Z,11.98
2023-01-28T17:56:28.362Z,16.08
2023-01-28T17:58:57.922Z,16.38
2023-01-28T18:01:26.203Z,14.00
2023-01-28T18:03:53.065Z,13.88
2023-01-28T18:06:20.066Z,11.60
2023-01-28T18:08:47.258Z,15.07
2023-01-28T18:11:16.189Z,12.25
2023-01-28T18:13:43.252Z,18.23
2023-01-28T18:16:15.197Z,15.00
2023-01-28T18:18:42.411Z,18.48
2023-01-28T18:21:54.158Z,18.55
2023-01-28T18:24:24.362Z,23.30
2023-01-28T18:26:52.319Z,21.65
2023-01-28T18:29:20.861Z,22.38
2023-01-28T18:31:49.923Z,26.05
2023-01-28T18:34:18.226Z,22.67
2023-01-28T18:36:49.503Z,19.67
2023-01-28T18:39:20.715Z,21.88
2023-01-28T18:41:47.770Z,19.23
2023-01-28T18:44:16.206Z,14.00
2023-01-28T18:46:43.648Z,15.82
2023-01-28T18:49:10.699Z,14.35
2023-01-28T18:51:38.815Z,16.77
2023-01-28T18:54:07.422Z,15.25
2023-01-28T18:56:36.394Z,11.75
2023-01-28T18:59:05.256Z,11.93
2023-01-28T19:01:35.191Z,14.35
2023-01-28T19:04:02.912Z,18.30
2023-01-28T19:06:31.889Z,15.40
2023-01-28T19:09:01.613Z,14.98
2023-01-28T19:11:30.130Z,14.15
2023-01-28T19:13:59.041Z,23.58
2023-01-28T19:16:26.411Z,28.27
2023-01-28T19:19:01.286Z,25.23
2023-01-28T19:21:29.625Z,18.67
2023-01-28T19:24:01.961Z,24.77
2023-01-28T19:26:30.793Z,30.67
2023-01-28T19:28:58.184Z,30.92
2023-01-28T19:31:26.567Z,31.42
2023-01-28T19:33:59.887Z,24.63
2023-01-28T19:36:28.869Z,17.85
2023-01-28T19:39:05.004Z,24.35
2023-01-28T19:41:31.885Z,17.08
2023-01-28T19:43:59.692Z,15.75
2023-01-28T19:46:27.354Z,22.52
2023-01-28T19:48:55.010Z,18.17
2023-01-28T19:51:22.587Z,23.90
2023-01-28T19:53:53.933Z,21.35
2023-01-28T19:56:23.026Z,21.58
2023-01-28T19:58:50.277Z,19.23
2023-01-28T20:01:21.515Z,17.30
2023-01-28T20:03:52.749Z,22.02
2023-01-28T20:06:19.617Z,18.55
2023-01-28T20:08:52.544Z,19.23
2023-01-28T20:11:20.073Z,21.65
2023-01-28T20:13:48.948Z,20.58
2023-01-28T20:16:21.685Z,14.80
2023-01-28T20:18:50.872Z,21.83
2023-01-28T20:21:21.301Z,17.35
2023-01-28T20:23:52.942Z,20.20
2023-01-28T20:26:22.749Z,22.83
2023-01-28T20:28:51.371Z,60.60
2023-01-28T20:31:19.662Z,27.85
2023-01-28T20:33:46.720Z,21.38
2023-01-28T20:36:14.870Z,26.02
2023-01-28T20:38:44.353Z,24.85
2023-01-28T20:41:17.459Z,19.00
2023-01-28T20:43:45.730Z,21.30
2023-01-28T20:46:28.133Z,21.13
2023-01-28T20:48:56.594Z,21.27
2023-01-28T20:51:26.367Z,22.58
2023-01-28T20:53:53.637Z,20.48
2023-01-28T20:56:22.488Z,24.38
2023-01-28T20:58:58.273Z,24.88
2023-01-28T21:01:27.963Z,22.92
2023-01-28T21:03:56.021Z,26.98
2023-01-28T21:06:24.680Z,22.75
2023-01-28T21:08:53.281Z,25.63
2023-01-28T21:11:22.141Z,24.83
2023-01-28T21:13:49.181Z,28.58
2023-01-28T21:16:16.730Z,25.02
2023-01-28T21:18:44.298Z,23.63
2023-01-28T21:21:18.079Z,29.42
2023-01-28T21:23:44.997Z,25.25
2023-01-28T21:26:12.304Z,28.10
2023-01-28T21:28:39.401Z,29.02
2023-01-28T21:31:11.399Z,30.98
2023-01-28T21:33:39.814Z,26.70
2023-01-28T21:36:12.093Z,27.73
2023-01-28T21:38:40.421Z,23.15
2023-01-28T21:41:08.245Z,29.05
2023-01-28T21:43:35.427Z,27.77
2023-01-28T21:46:02.869Z,28.42
2023-01-28T21:48:30.533Z,24.75
2023-01-28T21:51:23.454Z,24.10
2023-01-28T21:53:50.251Z,24.13
2023-01-28T21:56:17.621Z,28.30
2023-01-28T21:59:02.768Z,29.60
2023-01-28T22:01:29.608Z,39.67
2023-01-28T22:03:56.409Z,48.67
2023-01-28T22:06:23.191Z,41.47
2023-01-28T22:08:52.862Z,39.28
2023-01-28T22:11:20.032Z,44.28
2023-01-28T22:13:47.401Z,34.38
2023-01-28T22:16:14.495Z,31.70
2023-01-28T22:18:41.412Z,30.25
2023-01-28T22:21:11.563Z,28.13
2023-01-28T22:23:38.811Z,27.30
2023-01-28T22:26:05.731Z,29.50
2023-01-28T22:28:32.552Z,30.95
2023-01-28T22:31:11.269Z,29.08
2023-01-28T22:33:38.936Z,28.77
2023-01-28T22:36:08.801Z,29.60
2023-01-28T22:38:41.879Z,27.60
2023-01-28T22:41:11.959Z,28.27
2023-01-28T22:43:38.957Z,24.85
2023-01-28T22:46:06.543Z,30.73
2023-01-28T22:48:37.223Z,27.30
2023-01-28T22:51:07.334Z,32.20
2023-01-28T22:53:34.367Z,29.50
2023-01-28T22:56:02.636Z,29.77
2023-01-28T22:58:31.694Z,27.25
2023-01-28T23:00:58.950Z,27.63
2023-01-28T23:03:26.257Z,31.52
2023-01-28T23:06:01.268Z,29.13
2023-01-28T23:08:28.434Z,27.95
2023-01-28T23:10:59.585Z,27.60
2023-01-28T23:13:27.614Z,30.17
2023-01-28T23:16:12.908Z,28.33
2023-01-28T23:18:58.341Z,31.25
2023-01-28T23:21:46.505Z,28.33
2023-01-28T23:24:20.745Z,26.27
2023-01-28T23:26:57.196Z,28.80
2023-01-28T23:29:28.698Z,26.30
2023-01-28T23:34:38.253Z,30.20
2023-01-28T23:37:07.056Z,27.00
2023-01-28T23:39:34.573Z,30.67
2023-01-28T23:42:18.980Z,30.80
2023-01-28T23:44:45.894Z,28.35
2023-01-28T23:47:12.861Z,27.80
2023-01-28T23:49:40.182Z,25.77
2023-01-28T23:52:07.712Z,27.52
2023-01-28T23:54:34.917Z,30.83
2023-01-28T23:57:02.236Z,31.00
2023-01-28T23:59:28.968Z,30.35
